Time;durP1;ratioP1;P1;durP2;ratioP2;P2;SDS_P1;SDS_P2;PMS_P1;PMS_P2;Temp;Humidity;BMP_temperature;BMP_pressure;BME280_temperature;BME280_humidity;BME280_pressure;Samples;Min_cycle;Max_cycle;Signal;HPM_P1;HPM_P2
2021/05/16 00:00:35;;;;;;;3.80;1.10;;;10.00;99.90;;;;;;4967278;28;20480;-53
2021/05/16 00:03:01;;;;;;;4.00;1.00;;;10.10;99.90;;;;;;4955310;28;21059;-63
2021/05/16 00:05:28;;;;;;;3.70;0.93;;;10.10;99.90;;;;;;4967612;28;20380;-54
2021/05/16 00:07:54;;;;;;;3.97;1.00;;;10.00;99.90;;;;;;4958907;28;20413;-54
2021/05/16 00:10:21;;;;;;;5.38;1.40;;;10.10;99.90;;;;;;4968731;28;20640;-53
2021/05/16 00:12:47;;;;;;;4.00;1.05;;;10.00;99.90;;;;;;4972847;28;20385;-53
2021/05/16 00:15:15;;;;;;;3.90;1.00;;;10.00;99.90;;;;;;4971992;28;20828;-54
2021/05/16 00:17:42;;;;;;;4.95;1.52;;;10.10;99.90;;;;;;4972554;28;20391;-53
2021/05/16 00:20:11;;;;;;;4.60;1.20;;;10.10;99.90;;;;;;4972045;28;20443;-55
2021/05/16 00:22:38;;;;;;;4.15;1.10;;;10.20;99.90;;;;;;4972335;28;20924;-53
2021/05/16 00:25:07;;;;;;;5.47;1.10;;;10.10;99.90;;;;;;4971856;28;20385;-54
2021/05/16 00:27:33;;;;;;;4.13;1.10;;;10.20;99.90;;;;;;4972378;28;20487;-53
2021/05/16 00:29:59;;;;;;;5.23;1.23;;;10.10;99.90;;;;;;4971735;28;20407;-64
2021/05/16 00:32:25;;;;;;;4.05;1.15;;;10.10;99.90;;;;;;4971609;28;20392;-53
2021/05/16 00:34:51;;;;;;;4.03;1.10;;;10.10;99.90;;;;;;4972550;28;20385;-53
2021/05/16 00:37:17;;;;;;;4.70;1.30;;;10.10;99.90;;;;;;4971899;28;20431;-53
2021/05/16 00:39:42;;;;;;;5.60;1.10;;;10.10;99.90;;;;;;4972037;28;20891;-53
2021/05/16 00:42:08;;;;;;;4.70;1.48;;;10.10;99.90;;;;;;4971608;28;20393;-53
2021/05/16 00:44:34;;;;;;;5.23;1.30;;;10.00;99.90;;;;;;4972176;28;20512;-54
2021/05/16 00:46:59;;;;;;;6.70;1.30;;;10.20;99.90;;;;;;4971990;28;20971;-64
2021/05/16 00:49:25;;;;;;;3.90;1.00;;;10.20;99.90;;;;;;4971579;28;20784;-54
2021/05/16 00:51:51;;;;;;;4.30;1.08;;;10.20;99.90;;;;;;4971790;28;21124;-53
2021/05/16 00:54:17;;;;;;;4.55;1.20;;;10.10;99.90;;;;;;4971037;28;20392;-56
2021/05/16 00:56:43;;;;;;;4.60;1.10;;;10.20;99.90;;;;;;4972040;28;20392;-53
2021/05/16 00:59:09;;;;;;;5.18;1.25;;;10.20;99.90;;;;;;4971356;28;20388;-53
2021/05/16 01:01:34;;;;;;;4.57;1.40;;;9.00;99.90;;;;;;4970777;28;20403;-53
2021/05/16 01:04:00;;;;;;;4.20;1.27;;;10.40;99.90;;;;;;4971416;28;20401;-65
2021/05/16 01:06:26;;;;;;;3.92;1.10;;;10.20;99.90;;;;;;4971178;28;20780;-53
2021/05/16 01:08:56;;;;;;;4.13;1.00;;;10.20;99.90;;;;;;4972001;28;20384;-53
2021/05/16 01:11:25;;;;;;;4.28;1.40;;;10.20;99.90;;;;;;4970238;28;20387;-53
2021/05/16 01:13:51;;;;;;;4.30;0.93;;;10.20;99.90;;;;;;4971526;28;21010;-54
2021/05/16 01:16:16;;;;;;;5.10;1.40;;;10.20;99.90;;;;;;4970909;28;20487;-53
2021/05/16 01:18:42;;;;;;;4.90;1.30;;;10.20;99.90;;;;;;4971608;28;20878;-53
2021/05/16 01:21:08;;;;;;;3.60;1.10;;;10.30;99.90;;;;;;4970879;28;20907;-53
2021/05/16 01:23:46;;;;;;;4.55;1.17;;;10.30;99.90;;;;;;4971379;28;20471;-54
2021/05/16 01:26:11;;;;;;;6.70;1.30;;;10.30;99.90;;;;;;4970752;28;20398;-54
2021/05/16 01:28:37;;;;;;;4.43;1.10;;;10.40;99.90;;;;;;4971080;28;20870;-53
2021/05/16 01:31:04;;;;;;;4.72;1.20;;;10.50;99.90;;;;;;4971097;28;20384;-63
2021/05/16 01:33:30;;;;;;;5.07;1.40;;;10.50;99.90;;;;;;4971189;28;20433;-53
2021/05/16 01:35:56;;;;;;;4.80;1.40;;;10.50;99.90;;;;;;4971226;28;20868;-56
2021/05/16 01:38:22;;;;;;;5.60;1.30;;;10.60;99.90;;;;;;4970646;28;20479;-53
2021/05/16 01:40:48;;;;;;;4.80;1.20;;;10.60;99.90;;;;;;4971265;28;20463;-53
2021/05/16 01:43:14;;;;;;;4.77;1.20;;;10.60;99.90;;;;;;4970452;28;20495;-53
2021/05/16 01:45:41;;;;;;;4.70;1.23;;;10.70;99.90;;;;;;4971303;28;20396;-53
2021/05/16 01:48:07;;;;;;;6.00;1.20;;;10.60;99.90;;;;;;4970266;28;20412;-53
2021/05/16 01:50:35;;;;;;;4.78;1.00;;;10.60;99.90;;;;;;4953834;28;20804;-54
2021/05/16 01:53:03;;;;;;;3.92;1.30;;;10.70;99.90;;;;;;4970896;28;20384;-64
2021/05/16 01:55:30;;;;;;;6.03;1.45;;;10.80;99.90;;;;;;4971236;28;20446;-53
2021/05/16 01:57:55;;;;;;;5.80;1.90;;;10.70;99.90;;;;;;4971053;28;20396;-53
2021/05/16 02:00:28;;;;;;;5.00;1.30;;;10.80;99.90;;;;;;4970275;28;20415;-59
2021/05/16 02:02:55;;;;;;;4.60;1.60;;;10.60;99.90;;;;;;4970784;28;20435;-53
2021/05/16 02:05:21;;;;;;;6.30;1.90;;;10.60;99.90;;;;;;4970444;28;20676;-54
2021/05/16 02:07:51;;;;;;;8.82;1.92;;;10.80;99.90;;;;;;4970874;28;20892;-53
2021/05/16 02:10:18;;;;;;;5.43;1.40;;;10.70;99.90;;;;;;4970249;28;20466;-53
2021/05/16 02:12:44;;;;;;;4.97;1.30;;;10.70;99.90;;;;;;4971557;28;20959;-53
2021/05/16 02:15:11;;;;;;;5.40;1.40;;;10.60;99.90;;;;;;4970613;28;20475;-53
2021/05/16 02:17:40;;;;;;;4.43;1.33;;;10.60;99.90;;;;;;4970855;28;20400;-53
2021/05/16 02:20:08;;;;;;;4.30;1.40;;;10.60;99.90;;;;;;4953014;28;20392;-53
2021/05/16 02:22:34;;;;;;;5.32;1.60;;;10.60;99.90;;;;;;4971122;28;20412;-53
2021/05/16 02:25:00;;;;;;;4.90;1.50;;;10.70;99.90;;;;;;4953640;28;20431;-53
2021/05/16 02:27:25;;;;;;;4.80;1.50;;;10.80;99.90;;;;;;4973351;28;20427;-54
2021/05/16 02:29:51;;;;;;;5.03;1.33;;;10.80;99.90;;;;;;4974403;28;20420;-57
2021/05/16 02:32:17;;;;;;;6.65;1.30;;;10.70;99.90;;;;;;4956374;28;20459;-53
2021/05/16 02:34:42;;;;;;;5.80;1.40;;;10.70;99.90;;;;;;4957493;28;20400;-53
2021/05/16 02:37:08;;;;;;;7.30;1.50;;;10.60;99.90;;;;;;4973618;28;20424;-53
2021/05/16 02:39:34;;;;;;;6.30;1.40;;;10.60;99.90;;;;;;4974500;28;20396;-53
2021/05/16 02:41:59;;;;;;;5.50;1.50;;;10.50;99.90;;;;;;4974482;28;20748;-54
2021/05/16 02:44:27;;;;;;;4.00;1.30;;;10.40;99.90;;;;;;4973439;28;20388;-54
2021/05/16 02:46:53;;;;;;;7.18;1.40;;;10.50;99.90;;;;;;4974402;28;20416;-53
2021/05/16 02:49:19;;;;;;;3.90;1.40;;;10.30;99.90;;;;;;4973647;28;20408;-53
2021/05/16 02:51:44;;;;;;;5.53;1.77;;;10.40;99.90;;;;;;4974484;28;20381;-53
2021/05/16 02:54:10;;;;;;;4.70;1.40;;;10.30;99.90;;;;;;4973565;28;20384;-53
2021/05/16 02:56:36;;;;;;;6.20;1.50;;;10.30;99.90;;;;;;4974072;28;20396;-53
2021/05/16 02:59:02;;;;;;;4.70;1.40;;;10.30;99.90;;;;;;4974257;28;20892;-63
2021/05/16 03:01:28;;;;;;;4.28;1.40;;;10.30;99.90;;;;;;4973369;28;20388;-53
2021/05/16 03:03:53;;;;;;;6.93;1.70;;;10.30;99.90;;;;;;4957038;28;20391;-53
2021/05/16 03:06:19;;;;;;;4.68;1.65;;;10.40;99.90;;;;;;4973134;28;20543;-53
2021/05/16 03:08:45;;;;;;;5.30;1.83;;;10.30;99.90;;;;;;4974037;28;20388;-53
2021/05/16 03:11:13;;;;;;;5.03;2.20;;;10.30;99.90;;;;;;4973425;28;20427;-54
2021/05/16 03:13:38;;;;;;;4.95;1.80;;;10.40;99.90;;;;;;4974010;28;20452;-53
2021/05/16 03:16:04;;;;;;;5.47;1.90;;;10.40;99.90;;;;;;4973559;28;20475;-64
2021/05/16 03:18:31;;;;;;;5.70;1.80;;;10.50;99.90;;;;;;4973567;28;20407;-53
2021/05/16 03:20:58;;;;;;;5.47;2.00;;;10.40;99.90;;;;;;4969815;28;20409;-53
2021/05/16 03:23:24;;;;;;;4.20;2.00;;;10.40;99.90;;;;;;4972584;28;20475;-53
2021/05/16 03:25:49;;;;;;;5.83;2.20;;;10.40;99.90;;;;;;4973903;28;20423;-53
2021/05/16 03:28:15;;;;;;;5.32;2.20;;;10.40;99.90;;;;;;4951854;29;20430;-53
2021/05/16 03:30:41;;;;;;;6.53;2.40;;;10.40;99.90;;;;;;4954472;29;20829;-53
2021/05/16 03:33:06;;;;;;;5.45;2.08;;;10.40;99.90;;;;;;4953718;29;20723;-64
2021/05/16 03:35:32;;;;;;;6.50;1.97;;;10.40;99.90;;;;;;4952949;29;20833;-53
2021/05/16 03:37:59;;;;;;;6.63;1.98;;;10.40;99.90;;;;;;4953061;28;20398;-56
2021/05/16 03:40:25;;;;;;;6.43;1.90;;;10.50;99.90;;;;;;4953425;28;20390;-53
2021/05/16 03:42:50;;;;;;;6.70;2.50;;;10.60;99.90;;;;;;4954177;28;20404;-53
2021/05/16 03:45:16;;;;;;;7.57;2.60;;;10.50;99.90;;;;;;4953330;29;21199;-54
2021/05/16 03:47:42;;;;;;;6.38;2.00;;;10.60;99.90;;;;;;4954227;28;20496;-53
2021/05/16 03:50:11;;;;;;;5.60;1.90;;;10.50;99.90;;;;;;4953298;29;20908;-54
2021/05/16 03:52:39;;;;;;;6.22;2.10;;;10.40;99.90;;;;;;4953940;28;20413;-54
2021/05/16 03:55:07;;;;;;;3.88;1.73;;;10.40;99.90;;;;;;4953708;28;20386;-64
2021/05/16 03:57:32;;;;;;;5.30;2.50;;;10.50;99.90;;;;;;4953637;28;20514;-53
2021/05/16 03:59:58;;;;;;;6.85;2.50;;;10.50;99.90;;;;;;4953911;28;20408;-53
2021/05/16 04:02:24;;;;;;;5.53;2.20;;;10.50;99.90;;;;;;4953046;29;21008;-53
2021/05/16 04:04:49;;;;;;;5.20;2.03;;;10.50;99.90;;;;;;4953892;29;20892;-53
2021/05/16 04:07:15;;;;;;;6.40;2.30;;;10.40;99.90;;;;;;4953018;29;20429;-54
2021/05/16 04:09:41;;;;;;;5.20;2.30;;;10.30;99.90;;;;;;4954154;29;20429;-53
2021/05/16 04:12:06;;;;;;;6.73;2.33;;;10.30;99.90;;;;;;4952536;29;20394;-62
2021/05/16 04:14:33;;;;;;;6.50;2.67;;;10.20;99.90;;;;;;4953616;28;20401;-58
2021/05/16 04:16:58;;;;;;;10.68;2.78;;;10.20;99.90;;;;;;4953507;28;20932;-54
2021/05/16 04:19:24;;;;;;;5.37;2.30;;;10.10;99.90;;;;;;4952839;29;20386;-54
2021/05/16 04:21:50;;;;;;;6.00;2.40;;;10.20;99.90;;;;;;4953625;29;20390;-53
2021/05/16 04:24:15;;;;;;;6.67;2.53;;;10.80;99.90;;;;;;4952970;29;20951;-55
2021/05/16 04:26:41;;;;;;;5.95;2.42;;;10.20;99.90;;;;;;4953171;29;20555;-53
2021/05/16 04:29:07;;;;;;;7.93;2.40;;;10.20;99.90;;;;;;4951066;29;20477;-62
2021/05/16 04:31:33;;;;;;;6.70;2.80;;;10.30;99.90;;;;;;4951974;29;20774;-53
2021/05/16 04:33:59;;;;;;;4.75;2.00;;;10.30;99.90;;;;;;4952861;29;20386;-53
2021/05/16 04:36:25;;;;;;;4.87;1.90;;;10.30;99.90;;;;;;4952577;28;20378;-53
2021/05/16 04:38:52;;;;;;;5.72;2.40;;;10.20;99.90;;;;;;4953175;29;20432;-53
2021/05/16 04:41:18;;;;;;;5.97;2.00;;;10.30;99.90;;;;;;4952437;28;20390;-51
2021/05/16 04:43:44;;;;;;;4.68;2.22;;;10.30;99.90;;;;;;4952881;28;20403;-52
2021/05/16 04:46:09;;;;;;;7.78;2.50;;;10.30;99.90;;;;;;4952009;29;20928;-52
2021/05/16 04:48:35;;;;;;;5.90;2.50;;;10.30;99.90;;;;;;4952264;28;20432;-53
2021/05/16 04:51:01;;;;;;;5.28;2.15;;;10.40;99.90;;;;;;4953118;28;20474;-54
2021/05/16 04:53:29;;;;;;;4.60;1.80;;;10.50;99.90;;;;;;4952046;29;20562;-52
2021/05/16 04:55:55;;;;;;;7.35;2.30;;;10.50;99.90;;;;;;4952817;28;20488;-53
2021/05/16 04:58:22;;;;;;;5.65;2.20;;;10.50;99.90;;;;;;4951921;28;20944;-53
2021/05/16 05:00:48;;;;;;;4.40;2.22;;;10.40;99.90;;;;;;4952838;28;20477;-54
2021/05/16 05:03:15;;;;;;;5.45;1.90;;;10.60;99.90;;;;;;4951676;28;20386;-52
2021/05/16 05:05:41;;;;;;;5.15;1.70;;;10.70;99.90;;;;;;4953111;28;20480;-53
2021/05/16 05:08:07;;;;;;;7.50;2.28;;;10.80;99.90;;;;;;4951830;29;20524;-63
2021/05/16 05:10:32;;;;;;;5.50;2.60;;;10.80;99.90;;;;;;4952184;29;20392;-55
2021/05/16 05:12:58;;;;;;;6.40;2.20;;;11.00;99.90;;;;;;4952739;29;20382;-57
2021/05/16 05:15:23;;;;;;;6.40;1.70;;;11.10;99.90;;;;;;4951442;29;20390;-54
2021/05/16 05:17:49;;;;;;;4.87;1.73;;;11.20;99.90;;;;;;4952488;29;20388;-53
2021/05/16 05:20:15;;;;;;;4.70;1.40;;;11.90;99.90;;;;;;4951871;29;20402;-55
2021/05/16 05:22:40;;;;;;;4.00;1.50;;;12.60;99.90;;;;;;4952476;29;20862;-54
2021/05/16 05:25:07;;;;;;;3.60;1.50;;;13.00;99.90;;;;;;4950910;29;20390;-64
2021/05/16 05:27:33;;;;;;;3.50;1.20;;;12.90;99.90;;;;;;4951960;28;20836;-54
2021/05/16 05:29:58;;;;;;;3.95;1.30;;;13.10;99.90;;;;;;4970800;28;20412;-54
2021/05/16 05:32:24;;;;;;;4.93;1.40;;;13.30;99.90;;;;;;4970408;28;20387;-54
2021/05/16 05:34:50;;;;;;;5.30;1.30;;;13.10;99.90;;;;;;4971755;28;20423;-56
2021/05/16 05:37:15;;;;;;;4.45;1.30;;;12.70;99.90;;;;;;4970677;28;20478;-56
2021/05/16 05:39:41;;;;;;;3.90;1.40;;;12.50;99.90;;;;;;4971192;28;20759;-55
2021/05/16 05:42:06;;;;;;;4.73;1.30;;;12.30;99.90;;;;;;4971008;28;20381;-64
2021/05/16 05:44:34;;;;;;;5.70;1.17;;;12.20;99.90;;;;;;4969895;28;20380;-55
2021/05/16 05:47:00;;;;;;;5.90;1.23;;;12.10;99.90;;;;;;4971220;28;20891;-53
2021/05/16 05:49:26;;;;;;;4.60;1.30;;;12.00;99.90;;;;;;4970340;28;20395;-54
2021/05/16 05:51:51;;;;;;;3.73;1.10;;;11.90;99.90;;;;;;4966589;28;20763;-62
2021/05/16 05:54:17;;;;;;;5.00;1.20;;;11.60;99.90;;;;;;4956209;28;20409;-57
2021/05/16 05:56:43;;;;;;;4.37;1.20;;;11.50;99.90;;;;;;4968714;28;20942;-54
2021/05/16 05:59:09;;;;;;;4.93;1.20;;;11.30;99.90;;;;;;4950798;29;20484;-63
2021/05/16 06:01:35;;;;;;;6.18;1.65;;;11.10;99.90;;;;;;4959973;28;20897;-56
2021/05/16 06:04:00;;;;;;;5.50;1.40;;;11.10;99.90;;;;;;4971585;28;20390;-54
2021/05/16 06:06:26;;;;;;;5.03;1.50;;;11.10;99.90;;;;;;4965196;28;20715;-55
2021/05/16 06:08:52;;;;;;;4.47;1.30;;;11.20;99.90;;;;;;4964387;28;20385;-53
2021/05/16 06:11:17;;;;;;;5.10;1.30;;;11.30;99.90;;;;;;4960763;28;20388;-54
2021/05/16 06:13:43;;;;;;;4.80;1.10;;;11.40;99.90;;;;;;4965599;28;20434;-53
2021/05/16 06:16:09;;;;;;;9.07;1.80;;;11.40;99.90;;;;;;4963277;28;20400;-61
2021/05/16 06:18:36;;;;;;;4.60;1.07;;;11.60;99.90;;;;;;4963674;28;20407;-53
2021/05/16 06:21:02;;;;;;;6.32;1.30;;;11.70;99.90;;;;;;4965537;28;20891;-54
2021/05/16 06:23:34;;;;;;;5.07;1.33;;;11.80;99.90;;;;;;4962664;28;20429;-54
2021/05/16 06:26:00;;;;;;;4.00;1.40;;;12.00;99.90;;;;;;4963375;28;20388;-55
2021/05/16 06:28:26;;;;;;;4.43;1.10;;;12.00;99.90;;;;;;4964018;28;20494;-54
2021/05/16 06:30:51;;;;;;;4.10;1.40;;;12.10;99.90;;;;;;4964046;28;20401;-55
2021/05/16 06:33:17;;;;;;;3.72;0.98;;;12.60;99.90;;;;;;4961536;28;20399;-56
2021/05/16 06:35:43;;;;;;;4.10;1.20;;;13.60;99.90;;;;;;4965293;28;20392;-55
2021/05/16 06:38:08;;;;;;;4.10;1.23;;;14.20;99.90;;;;;;4962491;28;20402;-64
2021/05/16 06:40:35;;;;;;;4.22;1.15;;;14.20;99.90;;;;;;4964094;28;20724;-54
2021/05/16 06:43:03;;;;;;;5.13;1.30;;;14.50;99.90;;;;;;4964510;28;20398;-54
2021/05/16 06:45:29;;;;;;;3.60;0.90;;;15.40;99.90;;;;;;4960481;28;20398;-53
2021/05/16 06:47:55;;;;;;;4.53;1.10;;;16.20;99.90;;;;;;4963107;28;20415;-54
2021/05/16 06:50:20;;;;;;;3.97;1.00;;;17.40;99.90;;;;;;4963908;28;20784;-55
2021/05/16 06:52:46;;;;;;;4.75;1.00;;;18.00;99.90;;;;;;4963338;28;20786;-53
2021/05/16 06:55:12;;;;;;;4.77;0.93;;;17.20;99.90;;;;;;4962523;28;20443;-55
2021/05/16 06:57:40;;;;;;;4.00;1.00;;;16.20;99.90;;;;;;4962061;28;20456;-55
2021/05/16 07:00:06;;;;;;;5.35;1.00;;;14.90;99.90;;;;;;4963750;28;20403;-54
2021/05/16 07:02:32;;;;;;;4.25;1.00;;;14.40;99.90;;;;;;4962686;28;20485;-54
2021/05/16 07:04:57;;;;;;;5.40;1.40;;;14.00;99.90;;;;;;4963565;28;20554;-55
2021/05/16 07:07:23;;;;;;;5.00;1.10;;;13.80;99.90;;;;;;4962012;28;20417;-54
2021/05/16 07:09:49;;;;;;;8.10;1.10;;;13.70;99.90;;;;;;4963235;28;20391;-55
2021/05/16 07:12:15;;;;;;;4.37;1.20;;;13.80;99.90;;;;;;4963050;28;20468;-55
2021/05/16 07:14:40;;;;;;;4.97;1.10;;;13.60;99.90;;;;;;4962004;28;20386;-58
2021/05/16 07:17:06;;;;;;;3.60;1.00;;;13.70;99.90;;;;;;4963456;28;20880;-64
2021/05/16 07:19:32;;;;;;;6.10;1.10;;;13.60;99.90;;;;;;4963147;28;20933;-54
2021/05/16 07:21:57;;;;;;;6.87;1.20;;;13.60;99.90;;;;;;4963246;28;20448;-55
2021/05/16 07:24:23;;;;;;;5.97;1.30;;;13.50;99.90;;;;;;4962273;28;20515;-55
2021/05/16 07:26:49;;;;;;;5.20;1.10;;;13.80;99.90;;;;;;4963731;28;20421;-53
2021/05/16 07:29:14;;;;;;;5.33;1.20;;;14.20;99.90;;;;;;4960823;28;20445;-54
2021/05/16 07:31:40;;;;;;;5.00;0.90;;;14.40;99.90;;;;;;4962531;28;20923;-55
2021/05/16 07:34:06;;;;;;;4.10;1.17;;;14.30;99.90;;;;;;4962406;28;20389;-63
2021/05/16 07:36:32;;;;;;;4.38;1.20;;;14.50;99.90;;;;;;4963227;28;20425;-54
2021/05/16 07:38:57;;;;;;;5.50;1.30;;;14.70;99.90;;;;;;4961737;28;20397;-54
2021/05/16 07:41:23;;;;;;;5.17;1.40;;;15.20;99.90;;;;;;4959517;28;20407;-54
2021/05/16 07:43:49;;;;;;;4.13;0.90;;;15.20;99.90;;;;;;4953632;29;20401;-54
2021/05/16 07:46:14;;;;;;;4.43;1.10;;;15.30;99.90;;;;;;4953174;28;20393;-54
2021/05/16 07:48:40;;;;;;;7.90;1.50;;;14.90;99.90;;;;;;4953341;29;20429;-54
2021/05/16 07:51:06;;;;;;;4.30;0.80;;;15.30;99.90;;;;;;4953990;29;20412;-53
2021/05/16 07:53:32;;;;;;;3.60;1.08;;;15.00;99.90;;;;;;4952993;29;20396;-53
2021/05/16 07:55:58;;;;;;;4.10;1.27;;;15.00;99.90;;;;;;4935982;29;20832;-54
2021/05/16 07:58:24;;;;;;;4.93;1.00;;;14.70;99.90;;;;;;4952049;29;20464;-65
2021/05/16 08:00:49;;;;;;;4.80;0.90;;;14.70;99.90;;;;;;4956032;28;20396;-66
2021/05/16 08:03:15;;;;;;;4.07;1.10;;;14.90;99.90;;;;;;4971673;28;20488;-62
2021/05/16 08:05:40;;;;;;;4.38;0.90;;;15.00;99.90;;;;;;4972885;28;20467;-65
2021/05/16 08:08:06;;;;;;;4.50;0.90;;;15.10;99.90;;;;;;4972629;28;20913;-61
2021/05/16 08:10:32;;;;;;;4.43;1.10;;;14.60;99.90;;;;;;4971380;28;20826;-62
2021/05/16 08:12:58;;;;;;;5.27;1.00;;;14.10;99.90;;;;;;4972725;28;20431;-62
2021/05/16 08:15:25;;;;;;;5.40;1.23;;;14.50;99.90;;;;;;4971345;28;20387;-62
2021/05/16 08:17:52;;;;;;;6.10;1.10;;;14.80;99.90;;;;;;4972384;28;20407;-62
2021/05/16 08:20:17;;;;;;;5.40;1.00;;;15.30;99.90;;;;;;4971275;28;20388;-62
2021/05/16 08:22:43;;;;;;;4.73;0.93;;;15.20;99.90;;;;;;4972607;28;20762;-62
2021/05/16 08:25:12;;;;;;;5.90;0.90;;;14.70;99.90;;;;;;4970903;28;20459;-63
2021/05/16 08:27:38;;;;;;;4.18;0.95;;;14.80;99.90;;;;;;4972082;28;20861;-61
2021/05/16 08:30:05;;;;;;;5.13;1.10;;;15.50;99.90;;;;;;4971974;28;20388;-60
2021/05/16 08:32:31;;;;;;;3.67;0.88;;;16.20;99.90;;;;;;4971105;28;20450;-57
2021/05/16 08:34:57;;;;;;;4.50;1.00;;;16.40;99.90;;;;;;4972151;28;20392;-60
2021/05/16 08:37:23;;;;;;;4.35;0.85;;;18.20;99.90;;;;;;4960103;28;20404;-61
2021/05/16 08:39:48;;;;;;;5.70;0.97;;;19.60;99.90;;;;;;4961390;28;20390;-62
2021/05/16 08:42:16;;;;;;;5.10;0.80;;;20.10;99.90;;;;;;4961154;28;20388;-62
2021/05/16 08:44:42;;;;;;;4.20;0.90;;;19.90;99.90;;;;;;4962708;28;20403;-62
2021/05/16 08:47:08;;;;;;;4.18;0.90;;;20.60;99.90;;;;;;4960692;28;20494;-62
2021/05/16 08:49:34;;;;;;;8.35;1.10;;;19.00;99.90;;;;;;4961504;28;20428;-61
2021/05/16 08:52:00;;;;;;;4.65;1.20;;;18.80;99.90;;;;;;4962293;28;20422;-62
2021/05/16 08:54:26;;;;;;;6.63;1.23;;;18.90;99.90;;;;;;4959532;28;20854;-62
2021/05/16 08:56:54;;;;;;;4.97;1.30;;;18.20;99.90;;;;;;4962157;28;20403;-62
2021/05/16 08:59:22;;;;;;;5.10;1.10;;;17.50;99.90;;;;;;4961173;28;20763;-61
2021/05/16 09:01:50;;;;;;;3.70;1.08;;;17.00;99.90;;;;;;4963162;28;20483;-61
2021/05/16 09:04:33;;;;;;;6.00;1.10;;;16.60;99.90;;;;;;4960658;28;20805;-61
2021/05/16 09:06:59;;;;;;;4.88;1.50;;;17.00;99.90;;;;;;4962283;28;20427;-62
2021/05/16 09:09:39;;;;;;;5.38;0.90;;;18.90;99.90;;;;;;4961082;28;20484;-62
2021/05/16 09:12:14;;;;;;;6.28;1.40;;;21.10;99.90;;;;;;4962187;28;20397;-61
2021/05/16 09:14:57;;;;;;;5.82;1.35;;;22.00;97.20;;;;;;4944393;28;20402;-61
2021/05/16 09:17:33;;;;;;;6.25;1.80;;;21.30;95.30;;;;;;4961052;28;20396;-62
2021/05/16 09:20:02;;;;;;;4.10;1.00;;;20.40;96.90;;;;;;4962011;28;20516;-62
2021/05/16 09:22:47;;;;;;;4.43;1.20;;;19.00;98.40;;;;;;4961372;28;20392;-61
2021/05/16 09:25:26;;;;;;;5.13;1.00;;;18.60;99.90;;;;;;4961549;28;20392;-61
2021/05/16 09:28:09;;;;;;;5.85;1.55;;;18.10;99.90;;;;;;4961771;28;20440;-60
2021/05/16 09:30:36;;;;;;;4.80;1.20;;;17.90;99.90;;;;;;4961450;28;20462;-61
2021/05/16 09:33:07;;;;;;;4.65;1.30;;;17.80;99.90;;;;;;4961521;28;20390;-61
2021/05/16 09:35:55;;;;;;;7.30;1.10;;;17.80;99.90;;;;;;4942048;28;20398;-61
2021/05/16 09:38:22;;;;;;;6.70;1.40;;;18.00;99.90;;;;;;4960524;28;20484;-62
2021/05/16 09:40:52;;;;;;;6.15;1.60;;;17.90;99.90;;;;;;4960033;28;20429;-61
2021/05/16 09:43:32;;;;;;;10.05;1.50;;;17.30;99.90;;;;;;4959837;28;20400;-61
2021/05/16 09:45:57;;;;;;;8.75;1.52;;;17.00;99.90;;;;;;4961788;28;20804;-62
2021/05/16 09:48:28;;;;;;;6.90;1.70;;;18.20;99.90;;;;;;4960432;28;20484;-62
2021/05/16 09:51:17;;;;;;;5.00;1.15;;;19.80;99.90;;;;;;4962005;28;20757;-62
2021/05/16 09:53:53;;;;;;;6.38;1.50;;;20.30;95.30;;;;;;4961745;28;20519;-62
2021/05/16 09:56:26;;;;;;;6.47;1.30;;;20.70;93.90;;;;;;4960900;28;20483;-62
2021/05/16 09:58:54;;;;;;;6.87;2.00;;;21.10;91.50;;;;;;4961314;28;20424;-62
2021/05/16 10:01:22;;;;;;;5.67;1.80;;;21.10;93.30;;;;;;4957912;28;21109;-62
2021/05/16 10:03:49;;;;;;;9.18;2.60;;;20.20;91.70;;;;;;4961845;28;20390;-62
2021/05/16 10:06:16;;;;;;;7.40;1.97;;;20.00;93.00;;;;;;4959115;28;20878;-62
2021/05/16 10:08:45;;;;;;;5.25;1.70;;;19.90;93.60;;;;;;4959121;28;20425;-63
2021/05/16 10:11:12;;;;;;;5.90;1.50;;;19.40;93.40;;;;;;4958915;28;20434;-63
2021/05/16 10:13:42;;;;;;;7.20;1.67;;;20.20;94.60;;;;;;4959816;28;20390;-54
2021/05/16 10:16:14;;;;;;;6.63;1.80;;;21.00;91.70;;;;;;4959773;28;20393;-54
2021/05/16 10:18:40;;;;;;;6.13;1.20;;;22.00;89.20;;;;;;4956978;28;20390;-55
2021/05/16 10:21:07;;;;;;;6.93;1.50;;;22.50;82.80;;;;;;4956791;28;20401;-55
2021/05/16 10:23:37;;;;;;;4.77;1.03;;;22.70;81.00;;;;;;4962137;28;20475;-57
2021/05/16 10:26:24;;;;;;;5.97;1.23;;;23.30;77.10;;;;;;4954752;28;20386;-55
2021/05/16 10:29:05;;;;;;;6.17;2.03;;;21.40;80.60;;;;;;4956512;28;20780;-55
2021/05/16 10:31:46;;;;;;;5.32;1.60;;;20.70;83.80;;;;;;4961445;28;21082;-55
2021/05/16 10:34:27;;;;;;;7.20;1.70;;;20.30;86.60;;;;;;4961635;28;20837;-64
2021/05/16 10:36:58;;;;;;;6.07;1.23;;;19.80;84.80;;;;;;4957014;28;20406;-56
2021/05/16 10:39:50;;;;;;;6.38;1.10;;;20.00;87.40;;;;;;4958299;28;20396;-55
2021/05/16 10:42:36;;;;;;;5.60;1.40;;;19.90;87.40;;;;;;4956974;28;20477;-56
2021/05/16 10:45:06;;;;;;;5.50;1.20;;;19.60;87.00;;;;;;4961554;28;20398;-55
2021/05/16 10:50:11;;;;;;;5.95;1.13;;;19.30;90.50;;;;;;4961898;28;20392;-55
2021/05/16 10:52:37;;;;;;;7.90;1.60;;;19.40;84.00;;;;;;4963486;28;20393;-56
2021/05/16 10:55:05;;;;;;;5.18;1.10;;;19.40;85.80;;;;;;4958950;28;20774;-57
2021/05/16 10:57:39;;;;;;;4.50;1.00;;;19.00;85.30;;;;;;4965805;28;20396;-52
2021/05/16 11:00:41;;;;;;;4.25;1.20;;;18.70;89.00;;;;;;4969741;28;20395;-59
2021/05/16 11:03:12;;;;;;;6.67;1.60;;;19.00;90.80;;;;;;4915200;28;20409;-54
2021/05/16 11:05:44;;;;;;;5.90;1.00;;;19.40;90.60;;;;;;4960421;28;20413;-54
2021/05/16 11:08:31;;;;;;;5.85;1.30;;;19.80;90.80;;;;;;4937951;29;20809;-53
2021/05/16 11:10:58;;;;;;;6.18;1.20;;;19.50;87.20;;;;;;4954146;29;20393;-56
2021/05/16 11:13:33;;;;;;;7.05;1.30;;;19.60;90.70;;;;;;4953711;29;20461;-57
2021/05/16 11:16:05;;;;;;;5.90;1.20;;;19.50;87.70;;;;;;4953997;29;20402;-56
2021/05/16 11:18:31;;;;;;;6.03;1.10;;;19.40;87.90;;;;;;4953338;29;20410;-54
2021/05/16 11:21:06;;;;;;;4.25;0.70;;;19.60;85.80;;;;;;4954108;29;20389;-58
2021/05/16 11:23:45;;;;;;;5.50;1.20;;;19.90;81.80;;;;;;4953149;29;20717;-55
2021/05/16 11:26:19;;;;;;;4.93;0.88;;;19.90;83.60;;;;;;4952605;29;20911;-64
2021/05/16 11:28:52;;;;;;;5.00;1.10;;;19.80;84.20;;;;;;4961879;28;20552;-56
2021/05/16 11:31:22;;;;;;;5.00;1.40;;;19.80;85.30;;;;;;4966094;28;20403;-56
2021/05/16 11:33:53;;;;;;;6.30;1.30;;;19.90;90.40;;;;;;4955167;28;20411;-55
2021/05/16 11:36:25;;;;;;;4.90;1.00;;;19.40;86.40;;;;;;4962744;28;20387;-55
2021/05/16 11:38:54;;;;;;;7.82;1.25;;;19.20;89.90;;;;;;4967959;28;20400;-54
2021/05/16 11:41:36;;;;;;;5.87;1.20;;;19.70;90.00;;;;;;4971846;28;20780;-54
2021/05/16 11:44:07;;;;;;;4.93;1.00;;;19.60;84.30;;;;;;4973253;28;20389;-54
2021/05/16 11:46:41;;;;;;;5.57;1.10;;;19.80;84.90;;;;;;4971928;28;21070;-54
2021/05/16 11:49:08;;;;;;;5.87;1.20;;;20.10;87.60;;;;;;4973249;28;20450;-55
2021/05/16 11:51:34;;;;;;;4.80;1.00;;;19.80;81.50;;;;;;4971709;28;20415;-55
2021/05/16 11:54:01;;;;;;;4.60;1.30;;;19.20;82.30;;;;;;4972552;28;20376;-54
2021/05/16 11:56:29;;;;;;;4.82;1.10;;;18.90;83.00;;;;;;4971671;28;20393;-58
2021/05/16 11:58:57;;;;;;;4.20;0.90;;;18.90;83.60;;;;;;4971256;28;20436;-55
2021/05/16 12:01:28;;;;;;;4.43;0.90;;;19.40;87.20;;;;;;4964199;28;20425;-54
2021/05/16 12:04:04;;;;;;;5.30;1.20;;;19.80;83.80;;;;;;4959375;28;20385;-55
2021/05/16 12:06:32;;;;;;;5.03;1.30;;;20.30;85.60;;;;;;4964610;28;20402;-54
2021/05/16 12:09:10;;;;;;;5.43;1.13;;;20.40;86.80;;;;;;4957541;28;20409;-54
2021/05/16 12:11:37;;;;;;;4.32;0.90;;;20.50;81.00;;;;;;4946214;28;20404;-55
2021/05/16 12:14:31;;;;;;;4.40;1.10;;;20.50;78.90;;;;;;4972097;28;20388;-55
2021/05/16 12:17:02;;;;;;;5.10;1.10;;;20.70;74.20;;;;;;4958570;28;20412;-55
2021/05/16 12:19:35;;;;;;;6.80;1.30;;;20.40;76.60;;;;;;4971087;28;20434;-55
2021/05/16 12:22:03;;;;;;;6.85;1.20;;;20.40;79.30;;;;;;4972309;28;20393;-57
2021/05/16 12:24:31;;;;;;;5.32;1.10;;;20.60;79.50;;;;;;4971633;28;20384;-55
2021/05/16 12:26:58;;;;;;;6.03;1.08;;;20.80;76.50;;;;;;4954373;28;20408;-53
2021/05/16 12:29:24;;;;;;;5.25;1.10;;;20.80;75.80;;;;;;4971373;28;20436;-55
2021/05/16 12:31:50;;;;;;;6.05;1.52;;;20.10;77.30;;;;;;4971608;28;20882;-55
2021/05/16 12:34:17;;;;;;;6.70;1.67;;;19.90;78.60;;;;;;4971377;28;20479;-66
2021/05/16 12:36:45;;;;;;;5.57;1.00;;;19.90;81.90;;;;;;4971661;28;20392;-55
2021/05/16 12:39:11;;;;;;;4.85;1.00;;;19.80;80.10;;;;;;4971840;28;20883;-55
2021/05/16 12:41:37;;;;;;;7.20;1.50;;;19.40;83.30;;;;;;4971082;28;20384;-55
2021/05/16 12:44:23;;;;;;;6.10;1.30;;;19.20;85.30;;;;;;4972079;28;20536;-55
2021/05/16 12:46:51;;;;;;;7.70;1.60;;;19.30;84.90;;;;;;4970914;28;20787;-54
2021/05/16 12:49:22;;;;;;;6.40;1.33;;;19.50;84.40;;;;;;4970984;28;20611;-66
2021/05/16 12:51:59;;;;;;;7.63;1.60;;;19.30;84.80;;;;;;4971716;28;20931;-53
2021/05/16 12:54:29;;;;;;;6.25;1.15;;;18.90;88.00;;;;;;4969477;28;20880;-56